createdAt,value
2022-09-20T00:01:32.813Z,8.88
2022-09-20T00:04:01.584Z,8.88
2022-09-20T00:06:31.161Z,8.95
2022-09-20T00:08:59.401Z,8.98
2022-09-20T00:11:29.066Z,9.04
2022-09-20T00:13:57.865Z,9.05
2022-09-20T00:16:28.968Z,9.09
2022-09-20T00:18:57.887Z,9.11
2022-09-20T00:21:27.751Z,9.11
2022-09-20T00:23:57.613Z,8.95
2022-09-20T00:26:27.057Z,8.83
2022-09-20T00:28:54.517Z,8.82
2022-09-20T00:31:21.611Z,8.77
2022-09-20T00:34:07.314Z,8.72
2022-09-20T00:36:34.145Z,8.62
2022-09-20T00:39:03.064Z,8.47
2022-09-20T00:41:31.276Z,8.56
2022-09-20T00:43:58.429Z,8.69
2022-09-20T00:46:42.854Z,8.78
2022-09-20T00:49:18.581Z,8.80
2022-09-20T00:51:48.961Z,8.81
2022-09-20T00:54:20.475Z,8.80
2022-09-20T00:56:48.842Z,8.75
2022-09-20T00:59:25.504Z,8.62
2022-09-20T01:02:00.849Z,8.55
2022-09-20T01:04:28.970Z,8.47
2022-09-20T01:07:00.048Z,8.55
2022-09-20T01:09:27.124Z,8.51
2022-09-20T01:11:57.233Z,8.47
2022-09-20T01:14:26.239Z,8.51
2022-09-20T01:16:55.992Z,8.42
2022-09-20T01:20:03.238Z,8.41
2022-09-20T01:22:57.903Z,8.29
2022-09-20T01:25:36.630Z,8.38
2022-09-20T01:28:03.527Z,8.34
2022-09-20T01:30:43.362Z,8.33
2022-09-20T01:33:28.735Z,8.38
2022-09-20T01:36:00.764Z,8.37
2022-09-20T01:38:46.384Z,8.52
2022-09-20T01:41:28.613Z,8.50
2022-09-20T01:44:05.040Z,8.51
2022-09-20T01:46:34.247Z,8.49
2022-09-20T01:49:16.311Z,8.42
2022-09-20T01:52:00.471Z,8.46
2022-09-20T01:54:30.305Z,8.42
2022-09-20T01:57:12.235Z,8.35
2022-09-20T01:59:54.417Z,8.23
2022-09-20T02:02:42.622Z,8.17
2022-09-20T02:05:18.677Z,8.12
2022-09-20T02:08:00.810Z,8.20
2022-09-20T02:10:35.004Z,8.18
2022-09-20T02:13:11.014Z,8.19
2022-09-20T02:16:04.727Z,8.19
2022-09-20T02:18:31.402Z,8.07
2022-09-20T02:21:11.177Z,8.02
2022-09-20T02:23:56.885Z,7.99
2022-09-20T02:26:48.385Z,7.95
2022-09-20T02:29:47.533Z,7.97
2022-09-20T02:32:24.107Z,7.97
2022-09-20T02:35:19.284Z,7.97
2022-09-20T02:38:24.736Z,7.97
2022-09-20T02:41:16.731Z,8.01
2022-09-20T02:44:05.526Z,8.08
2022-09-20T02:46:46.471Z,8.07
2022-09-20T02:49:39.047Z,8.02
2022-09-20T02:52:20.676Z,8.13
2022-09-20T02:55:34.813Z,8.01
2022-09-20T02:58:01.494Z,7.93
2022-09-20T03:00:54.024Z,7.93
2022-09-20T03:03:39.779Z,7.96
2022-09-20T03:06:30.200Z,7.95
2022-09-20T03:09:18.446Z,8.09
2022-09-20T03:12:10.218Z,8.17
2022-09-20T03:14:45.422Z,8.25
2022-09-20T03:17:36.440Z,8.18
2022-09-20T03:20:19.839Z,7.98
2022-09-20T03:23:22.011Z,8.01
2022-09-20T03:26:10.191Z,8.03
2022-09-20T03:29:08.586Z,7.98
2022-09-20T03:31:47.760Z,7.89
2022-09-20T03:34:33.317Z,7.91
2022-09-20T03:37:21.655Z,7.96
2022-09-20T03:40:19.196Z,7.91
2022-09-20T03:42:52.257Z,8.02
2022-09-20T03:45:57.439Z,8.20
2022-09-20T03:48:54.806Z,8.18
2022-09-20T03:51:33.898Z,8.13
2022-09-20T03:54:19.051Z,8.19
2022-09-20T03:56:58.924Z,8.16
2022-09-20T03:59:54.152Z,8.06
2022-09-20T04:02:41.718Z,8.05
2022-09-20T04:05:32.838Z,8.16
2022-09-20T04:08:34.755Z,8.23
2022-09-20T04:11:28.878Z,8.20
2022-09-20T04:14:18.304Z,8.16
2022-09-20T04:16:54.082Z,8.18
2022-09-20T04:19:33.040Z,8.24
2022-09-20T04:22:01.607Z,8.31
2022-09-20T04:24:28.807Z,8.30
2022-09-20T04:27:09.837Z,8.31
2022-09-20T04:29:44.967Z,8.37
2022-09-20T04:32:19.380Z,8.28
2022-09-20T04:35:27.003Z,8.16
2022-09-20T04:37:54.734Z,8.24
2022-09-20T04:40:30.688Z,8.24
2022-09-20T04:43:25.366Z,8.23
2022-09-20T04:46:01.246Z,8.13
2022-09-20T04:48:47.057Z,8.05
2022-09-20T04:51:51.391Z,8.03
2022-09-20T04:54:59.935Z,8.02
2022-09-20T04:57:46.977Z,7.93
2022-09-20T05:00:20.786Z,7.94
2022-09-20T05:03:29.877Z,7.97
2022-09-20T05:06:19.384Z,7.93
2022-09-20T05:09:17.466Z,7.90
2022-09-20T05:12:03.049Z,7.98
2022-09-20T05:14:58.971Z,8.12
2022-09-20T05:17:44.783Z,8.13
2022-09-20T05:20:42.921Z,8.21
2022-09-20T05:23:31.539Z,8.28
2022-09-20T05:26:28.746Z,8.34
2022-09-20T05:29:02.856Z,8.38
2022-09-20T05:31:51.268Z,8.38
2022-09-20T05:34:52.770Z,8.42
2022-09-20T05:37:44.016Z,8.37
2022-09-20T05:40:18.563Z,8.25
2022-09-20T05:43:16.684Z,8.20
2022-09-20T05:46:04.089Z,8.27
2022-09-20T05:48:55.313Z,8.21
2022-09-20T05:51:40.244Z,8.20
2022-09-20T05:54:41.948Z,8.20
2022-09-20T05:57:33.988Z,8.13
2022-09-20T06:00:22.222Z,8.16
2022-09-20T06:03:07.089Z,8.11
2022-09-20T06:05:50.097Z,8.19
2022-09-20T06:08:25.619Z,8.30
2022-09-20T06:11:18.253Z,8.41
2022-09-20T06:13:59.669Z,8.44
2022-09-20T06:17:02.730Z,8.51
2022-09-20T06:19:41.519Z,8.52
2022-09-20T06:22:21.808Z,8.52
2022-09-20T06:24:56.266Z,8.48
2022-09-20T06:27:34.918Z,8.51
2022-09-20T06:30:06.784Z,8.49
2022-09-20T06:32:34.678Z,8.48
2022-09-20T06:35:02.941Z,8.57
2022-09-20T06:37:51.417Z,8.62
2022-09-20T06:40:45.482Z,8.62
2022-09-20T06:43:14.501Z,8.71
2022-09-20T06:45:42.845Z,8.79
2022-09-20T06:48:13.802Z,8.84
2022-09-20T06:50:45.831Z,8.87
2022-09-20T06:53:18.600Z,8.95
2022-09-20T06:55:46.222Z,9.05
2022-09-20T06:58:12.985Z,9.14
2022-09-20T07:00:39.869Z,9.20
2022-09-20T07:03:07.475Z,9.27
2022-09-20T07:05:34.342Z,9.35
2022-09-20T07:08:01.725Z,9.44
2022-09-20T07:10:29.006Z,9.51
2022-09-20T07:13:00.467Z,9.65
2022-09-20T07:15:29.033Z,9.80
2022-09-20T07:17:55.825Z,9.97
2022-09-20T07:20:23.109Z,10.16
2022-09-20T07:22:50.222Z,10.33
2022-09-20T07:25:18.194Z,10.50
2022-09-20T07:27:46.374Z,10.68
2022-09-20T07:30:17.775Z,10.80
2022-09-20T07:32:44.638Z,10.93
2022-09-20T07:35:12.563Z,11.10
2022-09-20T07:37:42.701Z,11.21
2022-09-20T07:40:11.481Z,11.32
2022-09-20T07:42:38.516Z,11.47
2022-09-20T07:45:06.046Z,11.63
2022-09-20T07:47:35.424Z,11.77
2022-09-20T07:50:03.797Z,11.97
2022-09-20T07:52:30.544Z,12.12
2022-09-20T07:54:57.524Z,12.27
2022-09-20T07:57:24.291Z,12.40
2022-09-20T07:59:51.059Z,12.62
2022-09-20T08:02:18.091Z,12.77
2022-09-20T08:04:44.818Z,12.98
2022-09-20T08:07:12.788Z,13.13
2022-09-20T08:09:39.575Z,13.13
2022-09-20T08:14:55.479Z,13.65
2022-09-20T08:17:22.206Z,13.94
2022-09-20T08:19:50.549Z,14.19
2022-09-20T08:22:17.625Z,14.39
2022-09-20T08:24:44.407Z,14.51
2022-09-20T08:27:11.108Z,14.67
2022-09-20T08:29:37.925Z,14.89
2022-09-20T08:32:05.496Z,15.19
2022-09-20T08:34:32.185Z,15.39
2022-09-20T08:36:59.546Z,15.50
2022-09-20T08:42:33.105Z,15.59
2022-09-20T08:45:04.500Z,15.48
2022-09-20T08:47:35.934Z,15.71
2022-09-20T08:50:09.869Z,15.70
2022-09-20T08:52:40.066Z,16.00
2022-09-20T08:55:16.551Z,16.40
2022-09-20T08:57:48.976Z,16.66
2022-09-20T09:00:21.353Z,16.56
2022-09-20T09:02:53.915Z,16.24
2022-09-20T09:05:37.638Z,16.41
2022-09-20T09:08:16.255Z,16.84
2022-09-20T09:10:53.992Z,16.51
2022-09-20T09:13:26.366Z,16.22
2022-09-20T09:15:58.089Z,16.33
2022-09-20T09:18:32.578Z,16.61
2022-09-20T09:21:00.116Z,16.65
2022-09-20T09:23:27.521Z,16.65
2022-09-20T09:25:55.161Z,16.86
2022-09-20T09:28:29.297Z,17.29
2022-09-20T09:31:13.115Z,17.24
2022-09-20T09:33:45.453Z,17.35
2022-09-20T09:36:20.599Z,17.62
2022-09-20T09:38:47.970Z,17.33
2022-09-20T09:41:26.519Z,17.53
2022-09-20T09:44:06.509Z,17.32
2022-09-20T09:46:36.128Z,17.17
2022-09-20T09:49:11.311Z,16.68
2022-09-20T09:51:43.271Z,16.23
2022-09-20T09:54:18.259Z,15.98
2022-09-20T09:57:11.720Z,15.84
2022-09-20T09:59:43.288Z,15.98
2022-09-20T10:02:38.184Z,16.24
2022-09-20T10:05:24.648Z,16.67
2022-09-20T10:08:19.982Z,16.48
2022-09-20T10:11:01.956Z,16.30
2022-09-20T10:13:28.621Z,16.18
2022-09-20T10:16:17.506Z,16.28
2022-09-20T10:18:53.494Z,16.90
2022-09-20T10:21:42.133Z,17.63
2022-09-20T10:25:00.029Z,17.60
2022-09-20T10:27:57.760Z,17.09
2022-09-20T10:30:37.057Z,16.73
2022-09-20T10:33:11.237Z,16.44
2022-09-20T10:36:13.644Z,16.25
2022-09-20T10:38:57.584Z,16.32
2022-09-20T10:42:01.346Z,16.60
2022-09-20T10:44:55.320Z,16.90
2022-09-20T10:47:31.464Z,17.18
2022-09-20T10:50:17.325Z,17.42
2022-09-20T10:53:19.260Z,17.41
2022-09-20T10:56:13.117Z,17.06
2022-09-20T10:59:23.240Z,16.63
2022-09-20T11:02:08.848Z,16.44
2022-09-20T11:04:38.478Z,16.28
2022-09-20T11:07:19.275Z,16.11
2022-09-20T11:09:59.658Z,15.99
2022-09-20T11:12:38.382Z,16.04
2022-09-20T11:15:15.836Z,16.10
2022-09-20T11:18:03.276Z,16.17
2022-09-20T11:20:49.128Z,16.37
2022-09-20T11:23:25.329Z,17.07
2022-09-20T11:25:59.828Z,16.94
2022-09-20T11:28:42.376Z,16.88
2022-09-20T11:31:31.239Z,16.80
2022-09-20T11:34:25.724Z,16.59
2022-09-20T11:36:59.498Z,16.50
2022-09-20T11:39:29.584Z,16.66
2022-09-20T11:42:00.564Z,16.86
2022-09-20T11:44:27.821Z,16.99
2022-09-20T11:47:03.257Z,16.77
2022-09-20T11:49:56.901Z,16.64
2022-09-20T11:52:26.598Z,16.58
2022-09-20T11:55:28.975Z,16.45
2022-09-20T11:58:12.632Z,16.28
2022-09-20T12:00:46.556Z,16.26
2022-09-20T12:03:38.326Z,16.32
2022-09-20T12:06:33.264Z,16.44
2022-09-20T12:09:04.355Z,16.60
2022-09-20T12:11:34.305Z,16.71
2022-09-20T12:14:04.199Z,16.74
2022-09-20T12:16:41.227Z,16.77
2022-09-20T12:19:14.142Z,16.88
2022-09-20T12:21:59.452Z,16.86
2022-09-20T12:24:31.002Z,16.80
2022-09-20T12:27:00.375Z,16.68
2022-09-20T12:29:27.711Z,16.52
2022-09-20T12:31:57.021Z,16.37
2022-09-20T12:34:26.825Z,16.37
2022-09-20T12:36:53.664Z,16.23
2022-09-20T12:39:45.212Z,16.06
2022-09-20T12:42:11.953Z,15.88
2022-09-20T12:44:43.595Z,15.83
2022-09-20T12:47:10.235Z,15.72
2022-09-20T12:50:07.623Z,15.57
2022-09-20T12:52:53.549Z,15.58
2022-09-20T12:55:38.405Z,15.67
2022-09-20T12:58:14.528Z,15.83
2022-09-20T13:00:55.943Z,15.96
2022-09-20T13:03:29.744Z,15.95
2022-09-20T13:06:15.772Z,15.76
2022-09-20T13:08:42.841Z,15.70
2022-09-20T13:11:20.061Z,15.68
2022-09-20T13:13:51.787Z,15.79
2022-09-20T13:16:24.076Z,15.92
2022-09-20T13:19:01.661Z,15.97
2022-09-20T13:21:29.436Z,15.89
2022-09-20T13:23:56.704Z,15.77
2022-09-20T13:26:32.882Z,15.59
2022-09-20T13:29:01.358Z,15.50
2022-09-20T13:31:31.026Z,15.39
2022-09-20T13:34:21.945Z,15.33
2022-09-20T13:36:55.981Z,15.29
2022-09-20T13:39:36.002Z,15.20
2022-09-20T13:42:12.103Z,15.14
2022-09-20T13:44:39.671Z,15.09
2022-09-20T13:47:31.968Z,15.10
2022-09-20T13:50:02.883Z,15.08
2022-09-20T13:52:31.803Z,15.17
2022-09-20T13:55:00.442Z,15.35
2022-09-20T13:57:29.845Z,16.19
2022-09-20T13:59:57.950Z,16.58
2022-09-20T14:02:30.320Z,18.06
2022-09-20T14:05:00.797Z,19.27
2022-09-20T14:07:29.518Z,18.97
2022-09-20T14:09:58.820Z,18.05
2022-09-20T14:12:27.577Z,17.97
2022-09-20T14:14:55.255Z,19.00
2022-09-20T14:17:24.566Z,19.36
2022-09-20T14:19:58.281Z,19.79
2022-09-20T14:22:29.322Z,20.08
2022-09-20T14:25:02.772Z,20.24
2022-09-20T14:27:33.232Z,20.13
2022-09-20T14:30:00.726Z,19.98
2022-09-20T14:32:56.474Z,19.48
2022-09-20T14:35:23.288Z,19.09
2022-09-20T14:37:59.319Z,19.10
2022-09-20T14:40:33.714Z,18.42
2022-09-20T14:43:06.143Z,17.80
2022-09-20T14:45:43.473Z,17.26
2022-09-20T14:48:11.406Z,17.03
2022-09-20T14:50:47.137Z,16.93
2022-09-20T14:53:27.202Z,16.84
2022-09-20T14:56:06.661Z,16.61
2022-09-20T14:59:06.475Z,16.56
2022-09-20T15:01:53.958Z,16.45
2022-09-20T15:04:23.232Z,16.47
2022-09-20T15:06:51.874Z,16.57
2022-09-20T15:09:39.160Z,16.56
2022-09-20T15:12:19.208Z,16.53
2022-09-20T15:14:47.415Z,16.47
2022-09-20T15:17:20.088Z,16.38
2022-09-20T15:19:49.519Z,16.32
2022-09-20T15:22:16.622Z,16.25
2022-09-20T15:24:44.179Z,16.06
2022-09-20T15:27:12.362Z,15.93
2022-09-20T15:29:39.509Z,15.88
2022-09-20T15:32:06.576Z,15.95
2022-09-20T15:34:33.226Z,15.89
2022-09-20T15:37:00.039Z,15.91
2022-09-20T15:39:28.005Z,15.95
2022-09-20T15:41:54.733Z,15.99
2022-09-20T15:44:22.157Z,16.01
2022-09-20T15:46:50.930Z,16.01
2022-09-20T15:49:17.696Z,15.98
2022-09-20T15:51:44.433Z,15.89
2022-09-20T15:54:14.543Z,15.76
2022-09-20T15:56:41.884Z,15.73
2022-09-20T15:59:10.967Z,15.71
2022-09-20T16:01:40.270Z,15.73
2022-09-20T16:04:11.019Z,15.73
2022-09-20T16:06:39.667Z,15.67
2022-09-20T16:09:07.573Z,15.61
2022-09-20T16:11:34.965Z,15.64
2022-09-20T16:14:01.743Z,15.63
2022-09-20T16:16:36.108Z,15.65
2022-09-20T16:19:18.016Z,15.64
2022-09-20T16:21:58.509Z,15.61
2022-09-20T16:24:28.373Z,15.63
2022-09-20T16:26:55.337Z,15.63
2022-09-20T16:29:22.325Z,15.60
2022-09-20T16:31:50.200Z,15.56
2022-09-20T16:34:22.099Z,15.50
2022-09-20T16:36:51.419Z,15.38
2022-09-20T16:39:19.403Z,15.31
2022-09-20T16:41:48.756Z,15.31
2022-09-20T16:44:16.479Z,15.17
2022-09-20T16:46:45.985Z,15.12
2022-09-20T16:49:13.588Z,15.09
2022-09-20T16:51:43.797Z,15.06
2022-09-20T16:54:13.533Z,15.10
2022-09-20T16:56:43.137Z,15.10
2022-09-20T16:59:10.751Z,15.06
2022-09-20T17:01:41.044Z,15.01
2022-09-20T17:04:14.769Z,15.00
2022-09-20T17:06:43.358Z,14.96
2022-09-20T17:09:10.982Z,14.94
2022-09-20T17:11:40.545Z,14.91
2022-09-20T17:14:08.722Z,14.83
2022-09-20T17:16:38.039Z,14.75
2022-09-20T17:19:08.319Z,14.72
2022-09-20T17:21:38.671Z,14.71
2022-09-20T17:24:07.043Z,14.72
2022-09-20T17:26:40.148Z,14.65
2022-09-20T17:29:09.806Z,14.57
2022-09-20T17:31:39.249Z,14.57
2022-09-20T17:34:09.419Z,14.58
2022-09-20T17:36:42.524Z,14.51
2022-09-20T17:39:12.090Z,14.45
2022-09-20T17:41:40.934Z,14.44
2022-09-20T17:44:08.225Z,14.43
2022-09-20T17:46:37.136Z,14.39
2022-09-20T17:49:09.521Z,14.36
2022-09-20T17:51:39.595Z,14.36
2022-09-20T17:54:13.563Z,14.38
2022-09-20T17:56:44.119Z,14.40
2022-09-20T17:59:11.967Z,14.36
2022-09-20T18:01:40.248Z,14.31
2022-09-20T18:04:07.908Z,14.25
2022-09-20T18:06:43.124Z,14.23
2022-09-20T18:09:13.953Z,14.16
2022-09-20T18:11:48.550Z,14.13
2022-09-20T18:14:17.765Z,14.12
2022-09-20T18:16:44.911Z,14.08
2022-09-20T18:19:11.839Z,14.01
2022-09-20T18:21:40.814Z,13.98
2022-09-20T18:24:09.805Z,13.94
2022-09-20T18:26:38.081Z,13.91
2022-09-20T18:29:12.241Z,13.87
2022-09-20T18:31:59.648Z,13.87
2022-09-20T18:34:31.855Z,13.85
2022-09-20T18:37:00.383Z,13.77
2022-09-20T18:39:29.523Z,13.64
2022-09-20T18:41:57.241Z,13.44
2022-09-20T18:44:24.306Z,13.41
2022-09-20T18:46:53.556Z,13.41
2022-09-20T18:49:21.769Z,13.36
2022-09-20T18:51:49.539Z,13.22
2022-09-20T18:54:16.861Z,13.20
2022-09-20T18:56:45.914Z,13.19
2022-09-20T18:59:24.210Z,13.11
2022-09-20T19:01:55.691Z,13.06
2022-09-20T19:04:25.906Z,12.94
2022-09-20T19:07:01.799Z,12.89
2022-09-20T19:09:37.111Z,12.84
2022-09-20T19:12:14.706Z,12.76
2022-09-20T19:15:11.795Z,12.68
2022-09-20T19:17:44.724Z,12.62
2022-09-20T19:20:34.716Z,12.53
2022-09-20T19:23:20.285Z,12.51
2022-09-20T19:25:47.620Z,12.52
2022-09-20T19:28:16.080Z,12.43
2022-09-20T19:30:48.198Z,12.37
2022-09-20T19:33:17.498Z,12.39
2022-09-20T19:35:49.736Z,12.28
2022-09-20T19:38:35.261Z,12.30
2022-09-20T19:41:13.309Z,12.26
2022-09-20T19:43:46.084Z,12.10
2022-09-20T19:46:21.923Z,12.05
2022-09-20T19:48:57.479Z,12.03
2022-09-20T19:51:26.097Z,12.04
2022-09-20T19:53:53.771Z,12.03
2022-09-20T19:56:27.622Z,12.03
2022-09-20T19:58:56.136Z,11.98
2022-09-20T20:01:25.139Z,11.76
2022-09-20T20:03:53.775Z,11.68
2022-09-20T20:06:33.130Z,11.58
2022-09-20T20:09:12.267Z,11.49
2022-09-20T20:12:02.733Z,11.38
2022-09-20T20:14:40.280Z,11.33
2022-09-20T20:17:13.104Z,11.30
2022-09-20T20:19:52.146Z,11.24
2022-09-20T20:22:29.122Z,11.27
2022-09-20T20:24:56.805Z,11.26
2022-09-20T20:27:25.943Z,11.19
2022-09-20T20:29:52.765Z,11.15
2022-09-20T20:32:19.478Z,11.12
2022-09-20T20:34:47.103Z,11.11
2022-09-20T20:37:14.244Z,11.12
2022-09-20T20:39:41.078Z,11.04
2022-09-20T20:42:11.919Z,11.08
2022-09-20T20:44:38.685Z,11.10
2022-09-20T20:47:06.984Z,11.01
2022-09-20T20:49:34.004Z,10.90
2022-09-20T20:52:04.526Z,10.81
2022-09-20T20:54:32.113Z,10.78
2022-09-20T20:57:03.452Z,10.71
2022-09-20T20:59:30.695Z,10.79
2022-09-20T21:01:57.494Z,10.77
2022-09-20T21:04:25.235Z,10.65
2022-09-20T21:06:52.804Z,10.67
2022-09-20T21:09:20.127Z,10.66
2022-09-20T21:11:48.393Z,10.57
2022-09-20T21:14:15.890Z,10.52
2022-09-20T21:16:44.971Z,10.48
2022-09-20T21:19:14.886Z,10.52
2022-09-20T21:21:43.782Z,10.50
2022-09-20T21:24:13.077Z,10.38
2022-09-20T21:26:40.404Z,10.38
2022-09-20T21:29:12.240Z,10.30
2022-09-20T21:31:40.879Z,10.20
2022-09-20T21:34:12.356Z,10.14
2022-09-20T21:36:41.456Z,10.17
2022-09-20T21:39:08.685Z,10.19
2022-09-20T21:41:37.285Z,10.13
2022-09-20T21:44:05.526Z,10.07
2022-09-20T21:46:35.149Z,10.08
2022-09-20T21:49:04.886Z,10.10
2022-09-20T21:51:33.162Z,10.06
2022-09-20T21:54:01.395Z,10.11
2022-09-20T21:56:36.603Z,10.10
2022-09-20T21:59:04.629Z,10.10
2022-09-20T22:01:34.756Z,9.98
2022-09-20T22:04:06.518Z,9.92
2022-09-20T22:06:36.322Z,9.92
2022-09-20T22:09:06.366Z,9.97
2022-09-20T22:11:38.738Z,9.95
2022-09-20T22:14:06.941Z,9.92
2022-09-20T22:16:39.989Z,9.75
2022-09-20T22:19:09.633Z,9.70
2022-09-20T22:21:39.090Z,9.74
2022-09-20T22:24:07.898Z,9.76
2022-09-20T22:26:37.626Z,9.80
2022-09-20T22:29:04.800Z,9.76
2022-09-20T22:31:33.807Z,9.72
2022-09-20T22:34:03.933Z,9.67
2022-09-20T22:36:34.367Z,9.69
2022-09-20T22:39:02.444Z,9.64
2022-09-20T22:41:29.381Z,9.68
2022-09-20T22:43:56.512Z,9.56
2022-09-20T22:46:25.615Z,9.56
2022-09-20T22:48:52.403Z,9.57
2022-09-20T22:51:21.484Z,9.53
2022-09-20T22:53:49.176Z,9.42
2022-09-20T22:56:20.998Z,9.33
2022-09-20T22:58:53.050Z,9.32
2022-09-20T23:01:24.968Z,9.41
2022-09-20T23:04:01.912Z,9.50
2022-09-20T23:06:31.087Z,9.46
2022-09-20T23:09:01.143Z,9.30
2022-09-20T23:11:28.800Z,9.32
2022-09-20T23:13:58.396Z,9.26
2022-09-20T23:16:30.451Z,9.24
2022-09-20T23:18:58.921Z,9.26
2022-09-20T23:21:26.672Z,9.18
2022-09-20T23:23:55.636Z,9.21
2022-09-20T23:26:22.988Z,9.14
2022-09-20T23:28:55.379Z,9.03
2022-09-20T23:31:23.018Z,9.01
2022-09-20T23:33:52.840Z,9.01
2022-09-20T23:36:20.683Z,8.95
2022-09-20T23:38:47.884Z,8.84
2022-09-20T23:41:18.919Z,8.80
2022-09-20T23:43:46.078Z,8.86
2022-09-20T23:46:14.729Z,8.88
2022-09-20T23:48:41.920Z,8.92
2022-09-20T23:51:14.752Z,8.92
2022-09-20T23:53:44.750Z,8.83
2022-09-20T23:56:12.494Z,8.84
2022-09-20T23:58:41.108Z,8.89
